sensor_id;sensor_type;location;lat;lon;timestamp;P1;durP1;ratioP1;P2;durP2;ratioP2
33246;SDS011;19606;50.108;19.804;2022-11-15T00:01:35;281.98;;;34.15;;
33246;SDS011;19606;50.108;19.804;2022-11-15T00:04:04;274.58;;;32.85;;
33246;SDS011;19606;50.108;19.804;2022-11-15T00:06:30;282.58;;;31.58;;
33246;SDS011;19606;50.108;19.804;2022-11-15T00:08:59;286.98;;;34.60;;
33246;SDS011;19606;50.108;19.804;2022-11-15T00:11:26;262.40;;;32.75;;
33246;SDS011;19606;50.108;19.804;2022-11-15T00:13:55;413.63;;;38.42;;
33246;SDS011;19606;50.108;19.804;2022-11-15T00:16:21;406.13;;;37.75;;
33246;SDS011;19606;50.108;19.804;2022-11-15T00:18:47;359.80;;;37.25;;
33246;SDS011;19606;50.108;19.804;2022-11-15T00:21:14;136.73;;;28.45;;
33246;SDS011;19606;50.108;19.804;2022-11-15T00:23:40;373.90;;;32.78;;
33246;SDS011;19606;50.108;19.804;2022-11-15T00:26:06;292.38;;;35.03;;
33246;SDS011;19606;50.108;19.804;2022-11-15T00:28:32;259.80;;;33.05;;
33246;SDS011;19606;50.108;19.804;2022-11-15T00:31:02;243.77;;;32.35;;
33246;SDS011;19606;50.108;19.804;2022-11-15T00:33:29;313.58;;;34.40;;
33246;SDS011;19606;50.108;19.804;2022-11-15T00:36:02;291.15;;;35.45;;
33246;SDS011;19606;50.108;19.804;2022-11-15T00:38:36;297.80;;;36.03;;
33246;SDS011;19606;50.108;19.804;2022-11-15T00:41:02;250.27;;;30.60;;
33246;SDS011;19606;50.108;19.804;2022-11-15T00:43:29;250.77;;;33.38;;
33246;SDS011;19606;50.108;19.804;2022-11-15T00:45:55;342.15;;;34.38;;
33246;SDS011;19606;50.108;19.804;2022-11-15T00:48:21;350.40;;;39.53;;
33246;SDS011;19606;50.108;19.804;2022-11-15T00:50:48;215.05;;;30.83;;
33246;SDS011;19606;50.108;19.804;2022-11-15T00:53:14;173.98;;;25.63;;
33246;SDS011;19606;50.108;19.804;2022-11-15T00:55:40;222.27;;;29.05;;
33246;SDS011;19606;50.108;19.804;2022-11-15T00:58:06;264.67;;;29.50;;
33246;SDS011;19606;50.108;19.804;2022-11-15T01:00:32;277.25;;;27.55;;
33246;SDS011;19606;50.108;19.804;2022-11-15T01:02:59;223.60;;;28.92;;
33246;SDS011;19606;50.108;19.804;2022-11-15T01:05:26;242.80;;;31.45;;
33246;SDS011;19606;50.108;19.804;2022-11-15T01:07:52;251.15;;;27.60;;
33246;SDS011;19606;50.108;19.804;2022-11-15T01:10:19;168.60;;;24.02;;
33246;SDS011;19606;50.108;19.804;2022-11-15T01:12:45;137.73;;;23.80;;
33246;SDS011;19606;50.108;19.804;2022-11-15T01:15:11;306.65;;;29.23;;
33246;SDS011;19606;50.108;19.804;2022-11-15T01:17:37;284.35;;;32.85;;
33246;SDS011;19606;50.108;19.804;2022-11-15T01:20:03;261.00;;;28.38;;
33246;SDS011;19606;50.108;19.804;2022-11-15T01:22:29;198.10;;;22.92;;
33246;SDS011;19606;50.108;19.804;2022-11-15T01:24:55;210.07;;;24.83;;
33246;SDS011;19606;50.108;19.804;2022-11-15T01:27:21;336.30;;;30.55;;
33246;SDS011;19606;50.108;19.804;2022-11-15T01:29:47;435.08;;;36.63;;
33246;SDS011;19606;50.108;19.804;2022-11-15T01:32:17;222.50;;;26.52;;
33246;SDS011;19606;50.108;19.804;2022-11-15T01:34:43;271.63;;;28.73;;
33246;SDS011;19606;50.108;19.804;2022-11-15T01:37:09;253.52;;;27.38;;
33246;SDS011;19606;50.108;19.804;2022-11-15T01:39:35;306.10;;;29.00;;
33246;SDS011;19606;50.108;19.804;2022-11-15T01:42:01;342.15;;;29.98;;
33246;SDS011;19606;50.108;19.804;2022-11-15T01:47:02;248.77;;;29.33;;
33246;SDS011;19606;50.108;19.804;2022-11-15T01:49:30;123.07;;;22.40;;
33246;SDS011;19606;50.108;19.804;2022-11-15T01:51:58;253.45;;;28.83;;
33246;SDS011;19606;50.108;19.804;2022-11-15T01:54:24;369.92;;;32.35;;
33246;SDS011;19606;50.108;19.804;2022-11-15T01:56:52;663.13;;;48.88;;
33246;SDS011;19606;50.108;19.804;2022-11-15T01:59:19;483.77;;;36.90;;
33246;SDS011;19606;50.108;19.804;2022-11-15T02:01:45;343.83;;;31.80;;
33246;SDS011;19606;50.108;19.804;2022-11-15T02:04:21;172.35;;;22.92;;
33246;SDS011;19606;50.108;19.804;2022-11-15T02:06:49;183.15;;;22.65;;
33246;SDS011;19606;50.108;19.804;2022-11-15T02:09:15;201.35;;;25.08;;
33246;SDS011;19606;50.108;19.804;2022-11-15T02:11:41;247.20;;;26.45;;
33246;SDS011;19606;50.108;19.804;2022-11-15T02:14:09;191.18;;;24.17;;
33246;SDS011;19606;50.108;19.804;2022-11-15T02:22:11;170.85;;;21.50;;
33246;SDS011;19606;50.108;19.804;2022-11-15T02:29:59;131.40;;;19.23;;
33246;SDS011;19606;50.108;19.804;2022-11-15T02:41:01;259.55;;;24.77;;
33246;SDS011;19606;50.108;19.804;2022-11-15T02:43:28;384.55;;;27.25;;
33246;SDS011;19606;50.108;19.804;2022-11-15T02:46:45;429.10;;;33.92;;
33246;SDS011;19606;50.108;19.804;2022-11-15T02:49:23;428.67;;;31.15;;
33246;SDS011;19606;50.108;19.804;2022-11-15T02:51:51;521.90;;;38.67;;
33246;SDS011;19606;50.108;19.804;2022-11-15T02:54:20;612.70;;;44.67;;
33246;SDS011;19606;50.108;19.804;2022-11-15T02:56:47;542.63;;;43.10;;
33246;SDS011;19606;50.108;19.804;2022-11-15T03:06:53;269.23;;;24.88;;
33246;SDS011;19606;50.108;19.804;2022-11-15T03:11:53;248.27;;;21.38;;
33246;SDS011;19606;50.108;19.804;2022-11-15T03:14:24;343.65;;;28.33;;
33246;SDS011;19606;50.108;19.804;2022-11-15T03:19:53;345.52;;;29.80;;
33246;SDS011;19606;50.108;19.804;2022-11-15T03:22:21;418.42;;;35.10;;
33246;SDS011;19606;50.108;19.804;2022-11-15T03:24:50;360.50;;;30.88;;
33246;SDS011;19606;50.108;19.804;2022-11-15T03:27:19;329.45;;;31.52;;
33246;SDS011;19606;50.108;19.804;2022-11-15T03:29:47;456.13;;;35.13;;
33246;SDS011;19606;50.108;19.804;2022-11-15T03:32:16;376.80;;;29.92;;
33246;SDS011;19606;50.108;19.804;2022-11-15T03:34:45;316.77;;;27.42;;
33246;SDS011;19606;50.108;19.804;2022-11-15T03:37:14;328.23;;;31.48;;
33246;SDS011;19606;50.108;19.804;2022-11-15T03:39:40;426.63;;;38.28;;
33246;SDS011;19606;50.108;19.804;2022-11-15T03:42:13;403.77;;;34.58;;
33246;SDS011;19606;50.108;19.804;2022-11-15T03:44:51;268.50;;;25.50;;
33246;SDS011;19606;50.108;19.804;2022-11-15T03:47:25;428.85;;;33.55;;
33246;SDS011;19606;50.108;19.804;2022-11-15T03:49:56;475.35;;;41.05;;
33246;SDS011;19606;50.108;19.804;2022-11-15T03:52:24;420.60;;;32.85;;
33246;SDS011;19606;50.108;19.804;2022-11-15T03:54:54;323.73;;;25.17;;
33246;SDS011;19606;50.108;19.804;2022-11-15T03:57:20;397.52;;;33.05;;
33246;SDS011;19606;50.108;19.804;2022-11-15T03:59:46;371.10;;;28.30;;
33246;SDS011;19606;50.108;19.804;2022-11-15T04:02:13;275.75;;;28.70;;
33246;SDS011;19606;50.108;19.804;2022-11-15T04:04:39;338.92;;;28.02;;
33246;SDS011;19606;50.108;19.804;2022-11-15T04:07:05;387.88;;;29.08;;
33246;SDS011;19606;50.108;19.804;2022-11-15T04:09:31;379.88;;;30.65;;
33246;SDS011;19606;50.108;19.804;2022-11-15T04:11:57;218.85;;;24.15;;
33246;SDS011;19606;50.108;19.804;2022-11-15T04:14:23;426.45;;;34.30;;
33246;SDS011;19606;50.108;19.804;2022-11-15T04:16:49;374.45;;;30.65;;
33246;SDS011;19606;50.108;19.804;2022-11-15T04:19:15;339.33;;;34.28;;
33246;SDS011;19606;50.108;19.804;2022-11-15T04:22:00;347.30;;;34.70;;
33246;SDS011;19606;50.108;19.804;2022-11-15T04:24:44;303.77;;;29.55;;
33246;SDS011;19606;50.108;19.804;2022-11-15T04:27:10;209.45;;;23.48;;
33246;SDS011;19606;50.108;19.804;2022-11-15T04:29:38;235.00;;;26.67;;
33246;SDS011;19606;50.108;19.804;2022-11-15T04:32:05;276.98;;;25.75;;
33246;SDS011;19606;50.108;19.804;2022-11-15T04:34:31;182.30;;;24.63;;
33246;SDS011;19606;50.108;19.804;2022-11-15T04:36:57;214.60;;;22.80;;
33246;SDS011;19606;50.108;19.804;2022-11-15T04:39:40;292.08;;;29.38;;
33246;SDS011;19606;50.108;19.804;2022-11-15T04:42:06;252.30;;;27.65;;
33246;SDS011;19606;50.108;19.804;2022-11-15T04:44:33;162.65;;;21.40;;
33246;SDS011;19606;50.108;19.804;2022-11-15T04:46:59;261.42;;;28.35;;
33246;SDS011;19606;50.108;19.804;2022-11-15T04:49:25;266.98;;;27.70;;
33246;SDS011;19606;50.108;19.804;2022-11-15T04:51:51;209.60;;;23.60;;
33246;SDS011;19606;50.108;19.804;2022-11-15T04:54:17;321.58;;;30.05;;
33246;SDS011;19606;50.108;19.804;2022-11-15T04:56:43;288.35;;;29.67;;
33246;SDS011;19606;50.108;19.804;2022-11-15T04:59:09;246.75;;;25.77;;
33246;SDS011;19606;50.108;19.804;2022-11-15T05:01:35;225.68;;;23.80;;
33246;SDS011;19606;50.108;19.804;2022-11-15T05:04:01;191.70;;;23.33;;
33246;SDS011;19606;50.108;19.804;2022-11-15T05:06:48;230.85;;;23.00;;
33246;SDS011;19606;50.108;19.804;2022-11-15T05:09:15;152.25;;;20.85;;
33246;SDS011;19606;50.108;19.804;2022-11-15T05:11:41;350.25;;;29.90;;
33246;SDS011;19606;50.108;19.804;2022-11-15T05:14:07;249.07;;;24.42;;
33246;SDS011;19606;50.108;19.804;2022-11-15T05:16:33;234.88;;;24.98;;
33246;SDS011;19606;50.108;19.804;2022-11-15T05:18:59;211.23;;;22.40;;
33246;SDS011;19606;50.108;19.804;2022-11-15T05:21:26;194.10;;;23.58;;
33246;SDS011;19606;50.108;19.804;2022-11-15T05:23:52;268.67;;;27.88;;
33246;SDS011;19606;50.108;19.804;2022-11-15T05:26:18;507.25;;;38.85;;
33246;SDS011;19606;50.108;19.804;2022-11-15T05:28:44;420.60;;;33.95;;
33246;SDS011;19606;50.108;19.804;2022-11-15T05:31:11;355.45;;;29.00;;
33246;SDS011;19606;50.108;19.804;2022-11-15T05:33:38;440.77;;;34.03;;
33246;SDS011;19606;50.108;19.804;2022-11-15T05:36:09;267.38;;;24.15;;
33246;SDS011;19606;50.108;19.804;2022-11-15T05:38:37;365.38;;;31.52;;
33246;SDS011;19606;50.108;19.804;2022-11-15T05:41:03;252.35;;;24.50;;
33246;SDS011;19606;50.108;19.804;2022-11-15T05:43:29;224.00;;;24.70;;
33246;SDS011;19606;50.108;19.804;2022-11-15T05:45:58;187.30;;;24.80;;
33246;SDS011;19606;50.108;19.804;2022-11-15T05:48:24;263.73;;;28.45;;
33246;SDS011;19606;50.108;19.804;2022-11-15T05:50:50;240.82;;;23.08;;
33246;SDS011;19606;50.108;19.804;2022-11-15T05:53:18;176.45;;;22.98;;
33246;SDS011;19606;50.108;19.804;2022-11-15T05:55:45;395.45;;;30.48;;
33246;SDS011;19606;50.108;19.804;2022-11-15T05:58:11;163.63;;;21.13;;
33246;SDS011;19606;50.108;19.804;2022-11-15T06:00:37;322.85;;;29.05;;
33246;SDS011;19606;50.108;19.804;2022-11-15T06:03:03;467.80;;;40.97;;
33246;SDS011;19606;50.108;19.804;2022-11-15T06:05:29;262.38;;;25.90;;
33246;SDS011;19606;50.108;19.804;2022-11-15T06:07:58;305.77;;;28.70;;
33246;SDS011;19606;50.108;19.804;2022-11-15T06:10:24;279.13;;;27.13;;
33246;SDS011;19606;50.108;19.804;2022-11-15T06:12:59;271.50;;;25.85;;
33246;SDS011;19606;50.108;19.804;2022-11-15T06:15:26;445.52;;;37.72;;
33246;SDS011;19606;50.108;19.804;2022-11-15T06:17:52;403.90;;;35.20;;
33246;SDS011;19606;50.108;19.804;2022-11-15T06:20:22;358.92;;;32.00;;
33246;SDS011;19606;50.108;19.804;2022-11-15T06:22:49;262.95;;;29.77;;
33246;SDS011;19606;50.108;19.804;2022-11-15T06:25:15;391.42;;;35.05;;
33246;SDS011;19606;50.108;19.804;2022-11-15T06:27:41;299.67;;;31.05;;
33246;SDS011;19606;50.108;19.804;2022-11-15T06:30:07;303.80;;;29.73;;
33246;SDS011;19606;50.108;19.804;2022-11-15T06:32:33;229.43;;;31.88;;
33246;SDS011;19606;50.108;19.804;2022-11-15T06:34:59;263.45;;;30.23;;
33246;SDS011;19606;50.108;19.804;2022-11-15T06:37:25;297.35;;;29.63;;
33246;SDS011;19606;50.108;19.804;2022-11-15T06:39:51;330.17;;;32.35;;
33246;SDS011;19606;50.108;19.804;2022-11-15T06:42:17;156.70;;;25.73;;
33246;SDS011;19606;50.108;19.804;2022-11-15T06:44:43;155.68;;;24.10;;
33246;SDS011;19606;50.108;19.804;2022-11-15T06:47:09;259.00;;;26.52;;
33246;SDS011;19606;50.108;19.804;2022-11-15T06:49:35;434.52;;;38.38;;
33246;SDS011;19606;50.108;19.804;2022-11-15T06:52:01;154.70;;;23.23;;
33246;SDS011;19606;50.108;19.804;2022-11-15T06:54:27;245.02;;;27.95;;
33246;SDS011;19606;50.108;19.804;2022-11-15T06:56:53;216.48;;;26.73;;
33246;SDS011;19606;50.108;19.804;2022-11-15T06:59:22;254.90;;;27.40;;
33246;SDS011;19606;50.108;19.804;2022-11-15T07:01:48;340.67;;;31.17;;
33246;SDS011;19606;50.108;19.804;2022-11-15T07:04:14;294.85;;;31.65;;
33246;SDS011;19606;50.108;19.804;2022-11-15T07:06:45;399.48;;;32.90;;
33246;SDS011;19606;50.108;19.804;2022-11-15T07:09:12;542.35;;;45.13;;
33246;SDS011;19606;50.108;19.804;2022-11-15T07:11:38;496.90;;;40.40;;
33246;SDS011;19606;50.108;19.804;2022-11-15T07:14:04;226.25;;;27.95;;
33246;SDS011;19606;50.108;19.804;2022-11-15T07:16:30;305.52;;;28.00;;
33246;SDS011;19606;50.108;19.804;2022-11-15T07:18:56;216.07;;;25.65;;
33246;SDS011;19606;50.108;19.804;2022-11-15T07:21:23;193.63;;;25.50;;
33246;SDS011;19606;50.108;19.804;2022-11-15T07:23:49;237.63;;;27.15;;
33246;SDS011;19606;50.108;19.804;2022-11-15T07:26:15;318.92;;;34.08;;
33246;SDS011;19606;50.108;19.804;2022-11-15T07:28:41;236.32;;;30.48;;
33246;SDS011;19606;50.108;19.804;2022-11-15T07:31:07;444.25;;;36.95;;
33246;SDS011;19606;50.108;19.804;2022-11-15T07:33:34;243.75;;;28.45;;
33246;SDS011;19606;50.108;19.804;2022-11-15T07:36:01;513.67;;;42.30;;
33246;SDS011;19606;50.108;19.804;2022-11-15T07:38:27;246.07;;;28.80;;
33246;SDS011;19606;50.108;19.804;2022-11-15T07:40:57;335.92;;;34.25;;
33246;SDS011;19606;50.108;19.804;2022-11-15T07:43:23;330.98;;;32.83;;
33246;SDS011;19606;50.108;19.804;2022-11-15T07:45:49;243.35;;;28.73;;
33246;SDS011;19606;50.108;19.804;2022-11-15T07:48:15;225.43;;;27.80;;
33246;SDS011;19606;50.108;19.804;2022-11-15T07:50:41;223.52;;;28.88;;
33246;SDS011;19606;50.108;19.804;2022-11-15T07:53:07;212.82;;;26.08;;
33246;SDS011;19606;50.108;19.804;2022-11-15T07:55:34;379.92;;;37.80;;
33246;SDS011;19606;50.108;19.804;2022-11-15T07:58:01;127.20;;;25.73;;
33246;SDS011;19606;50.108;19.804;2022-11-15T08:00:27;152.88;;;28.65;;
33246;SDS011;19606;50.108;19.804;2022-11-15T08:03:00;150.57;;;25.23;;
33246;SDS011;19606;50.108;19.804;2022-11-15T08:05:26;326.45;;;37.03;;
33246;SDS011;19606;50.108;19.804;2022-11-15T08:07:54;170.20;;;27.05;;
33246;SDS011;19606;50.108;19.804;2022-11-15T08:10:20;71.90;;;21.40;;
33246;SDS011;19606;50.108;19.804;2022-11-15T08:12:46;156.32;;;25.55;;
33246;SDS011;19606;50.108;19.804;2022-11-15T08:15:12;676.40;;;52.65;;
33246;SDS011;19606;50.108;19.804;2022-11-15T08:17:38;361.90;;;33.63;;
33246;SDS011;19606;50.108;19.804;2022-11-15T08:20:05;436.63;;;36.20;;
33246;SDS011;19606;50.108;19.804;2022-11-15T08:22:31;328.27;;;34.80;;
33246;SDS011;19606;50.108;19.804;2022-11-15T08:24:57;316.02;;;34.70;;
33246;SDS011;19606;50.108;19.804;2022-11-15T08:27:23;425.73;;;42.25;;
33246;SDS011;19606;50.108;19.804;2022-11-15T08:29:49;205.35;;;28.67;;
33246;SDS011;19606;50.108;19.804;2022-11-15T08:32:15;101.72;;;27.33;;
33246;SDS011;19606;50.108;19.804;2022-11-15T08:34:42;109.13;;;27.27;;
33246;SDS011;19606;50.108;19.804;2022-11-15T08:37:09;97.07;;;27.33;;
33246;SDS011;19606;50.108;19.804;2022-11-15T08:39:35;70.32;;;24.77;;
33246;SDS011;19606;50.108;19.804;2022-11-15T08:42:01;90.35;;;25.80;;
33246;SDS011;19606;50.108;19.804;2022-11-15T08:44:27;66.15;;;22.20;;
33246;SDS011;19606;50.108;19.804;2022-11-15T08:46:53;72.20;;;21.92;;
33246;SDS011;19606;50.108;19.804;2022-11-15T08:49:20;74.80;;;22.15;;
33246;SDS011;19606;50.108;19.804;2022-11-15T08:51:46;169.63;;;28.13;;
33246;SDS011;19606;50.108;19.804;2022-11-15T08:54:12;100.60;;;22.88;;
33246;SDS011;19606;50.108;19.804;2022-11-15T08:56:39;129.80;;;25.00;;
33246;SDS011;19606;50.108;19.804;2022-11-15T08:59:05;189.68;;;25.48;;
33246;SDS011;19606;50.108;19.804;2022-11-15T09:01:31;90.47;;;23.35;;
33246;SDS011;19606;50.108;19.804;2022-11-15T09:03:57;55.55;;;23.50;;
33246;SDS011;19606;50.108;19.804;2022-11-15T09:06:23;86.40;;;30.95;;
33246;SDS011;19606;50.108;19.804;2022-11-15T09:08:49;90.07;;;26.98;;
33246;SDS011;19606;50.108;19.804;2022-11-15T09:11:15;94.03;;;27.13;;
33246;SDS011;19606;50.108;19.804;2022-11-15T09:13:45;63.13;;;29.52;;
33246;SDS011;19606;50.108;19.804;2022-11-15T09:16:11;112.18;;;32.40;;
33246;SDS011;19606;50.108;19.804;2022-11-15T09:18:37;64.65;;;29.98;;
33246;SDS011;19606;50.108;19.804;2022-11-15T09:21:03;57.55;;;29.00;;
33246;SDS011;19606;50.108;19.804;2022-11-15T09:23:30;59.97;;;27.08;;
33246;SDS011;19606;50.108;19.804;2022-11-15T09:25:59;69.30;;;29.00;;
33246;SDS011;19606;50.108;19.804;2022-11-15T09:28:26;67.18;;;31.15;;
33246;SDS011;19606;50.108;19.804;2022-11-15T09:30:55;68.45;;;32.17;;
33246;SDS011;19606;50.108;19.804;2022-11-15T09:33:21;64.15;;;30.88;;
33246;SDS011;19606;50.108;19.804;2022-11-15T09:35:47;59.95;;;30.63;;
33246;SDS011;19606;50.108;19.804;2022-11-15T09:38:13;76.93;;;33.20;;
33246;SDS011;19606;50.108;19.804;2022-11-15T09:40:41;66.03;;;32.00;;
33246;SDS011;19606;50.108;19.804;2022-11-15T09:50:36;48.50;;;25.67;;
33246;SDS011;19606;50.108;19.804;2022-11-15T09:53:05;49.90;;;25.75;;
33246;SDS011;19606;50.108;19.804;2022-11-15T09:55:37;92.65;;;23.73;;
33246;SDS011;19606;50.108;19.804;2022-11-15T09:58:14;54.50;;;27.80;;
33246;SDS011;19606;50.108;19.804;2022-11-15T10:00:44;58.70;;;28.85;;
33246;SDS011;19606;50.108;19.804;2022-11-15T10:03:12;183.73;;;29.83;;
33246;SDS011;19606;50.108;19.804;2022-11-15T10:05:44;64.25;;;26.45;;
33246;SDS011;19606;50.108;19.804;2022-11-15T10:10:44;52.35;;;23.05;;
33246;SDS011;19606;50.108;19.804;2022-11-15T10:13:33;53.33;;;22.88;;
33246;SDS011;19606;50.108;19.804;2022-11-15T10:16:02;70.50;;;26.33;;
33246;SDS011;19606;50.108;19.804;2022-11-15T10:18:34;54.20;;;28.58;;
33246;SDS011;19606;50.108;19.804;2022-11-15T10:24:16;93.97;;;38.75;;
33246;SDS011;19606;50.108;19.804;2022-11-15T10:26:47;103.55;;;35.33;;
33246;SDS011;19606;50.108;19.804;2022-11-15T10:29:20;95.78;;;40.17;;
33246;SDS011;19606;50.108;19.804;2022-11-15T10:31:46;65.03;;;32.17;;
33246;SDS011;19606;50.108;19.804;2022-11-15T10:34:16;112.65;;;32.08;;
33246;SDS011;19606;50.108;19.804;2022-11-15T10:36:55;96.75;;;40.33;;
33246;SDS011;19606;50.108;19.804;2022-11-15T10:39:22;107.05;;;34.05;;
33246;SDS011;19606;50.108;19.804;2022-11-15T10:41:48;139.25;;;49.85;;
33246;SDS011;19606;50.108;19.804;2022-11-15T10:46:45;81.95;;;39.25;;
33246;SDS011;19606;50.108;19.804;2022-11-15T10:51:46;73.32;;;32.30;;
33246;SDS011;19606;50.108;19.804;2022-11-15T10:54:13;61.25;;;32.17;;
33246;SDS011;19606;50.108;19.804;2022-11-15T10:56:42;107.60;;;31.65;;
33246;SDS011;19606;50.108;19.804;2022-11-15T10:59:20;110.50;;;33.55;;
33246;SDS011;19606;50.108;19.804;2022-11-15T11:01:48;75.60;;;31.52;;
33246;SDS011;19606;50.108;19.804;2022-11-15T11:04:14;64.32;;;30.25;;
33246;SDS011;19606;50.108;19.804;2022-11-15T11:06:47;62.92;;;29.30;;
33246;SDS011;19606;50.108;19.804;2022-11-15T11:09:38;62.85;;;32.20;;
33246;SDS011;19606;50.108;19.804;2022-11-15T11:12:11;64.60;;;32.60;;
33246;SDS011;19606;50.108;19.804;2022-11-15T11:14:37;69.35;;;34.28;;
33246;SDS011;19606;50.108;19.804;2022-11-15T11:17:05;66.00;;;33.03;;
33246;SDS011;19606;50.108;19.804;2022-11-15T11:30:02;53.30;;;30.63;;
33246;SDS011;19606;50.108;19.804;2022-11-15T11:32:49;53.92;;;31.65;;
33246;SDS011;19606;50.108;19.804;2022-11-15T11:37:55;52.72;;;30.48;;
33246;SDS011;19606;50.108;19.804;2022-11-15T11:40:37;55.50;;;31.88;;
33246;SDS011;19606;50.108;19.804;2022-11-15T11:45:56;50.45;;;31.08;;
33246;SDS011;19606;50.108;19.804;2022-11-15T11:51:05;45.17;;;28.80;;
33246;SDS011;19606;50.108;19.804;2022-11-15T11:53:41;44.95;;;29.30;;
33246;SDS011;19606;50.108;19.804;2022-11-15T11:56:15;45.38;;;28.15;;
33246;SDS011;19606;50.108;19.804;2022-11-15T11:58:43;49.53;;;34.97;;
33246;SDS011;19606;50.108;19.804;2022-11-15T12:03:43;45.95;;;29.50;;
33246;SDS011;19606;50.108;19.804;2022-11-15T12:09:00;56.13;;;35.28;;
33246;SDS011;19606;50.108;19.804;2022-11-15T12:11:34;55.55;;;36.22;;
33246;SDS011;19606;50.108;19.804;2022-11-15T12:14:03;58.08;;;33.65;;
33246;SDS011;19606;50.108;19.804;2022-11-15T12:16:30;59.53;;;37.05;;
33246;SDS011;19606;50.108;19.804;2022-11-15T12:18:59;61.78;;;39.08;;
33246;SDS011;19606;50.108;19.804;2022-11-15T12:23:53;60.63;;;35.28;;
33246;SDS011;19606;50.108;19.804;2022-11-15T12:26:22;67.47;;;41.05;;
33246;SDS011;19606;50.108;19.804;2022-11-15T12:28:52;67.70;;;42.15;;
33246;SDS011;19606;50.108;19.804;2022-11-15T12:31:27;65.00;;;39.17;;
33246;SDS011;19606;50.108;19.804;2022-11-15T12:33:55;59.85;;;34.53;;
33246;SDS011;19606;50.108;19.804;2022-11-15T12:41:33;65.97;;;37.95;;
33246;SDS011;19606;50.108;19.804;2022-11-15T12:44:02;58.78;;;34.70;;
33246;SDS011;19606;50.108;19.804;2022-11-15T12:49:02;61.58;;;38.33;;
33246;SDS011;19606;50.108;19.804;2022-11-15T12:59:38;66.50;;;36.88;;
33246;SDS011;19606;50.108;19.804;2022-11-15T13:02:00;69.80;;;37.78;;
33246;SDS011;19606;50.108;19.804;2022-11-15T13:04:28;69.88;;;39.00;;
33246;SDS011;19606;50.108;19.804;2022-11-15T13:06:58;66.18;;;39.53;;
33246;SDS011;19606;50.108;19.804;2022-11-15T13:12:09;67.55;;;39.10;;
33246;SDS011;19606;50.108;19.804;2022-11-15T13:14:39;76.97;;;41.63;;
33246;SDS011;19606;50.108;19.804;2022-11-15T13:22:13;90.38;;;50.88;;
33246;SDS011;19606;50.108;19.804;2022-11-15T13:24:58;70.10;;;39.85;;
33246;SDS011;19606;50.108;19.804;2022-11-15T13:27:24;73.25;;;38.35;;
33246;SDS011;19606;50.108;19.804;2022-11-15T13:29:52;76.90;;;41.65;;
33246;SDS011;19606;50.108;19.804;2022-11-15T13:32:18;74.90;;;43.03;;
33246;SDS011;19606;50.108;19.804;2022-11-15T13:34:45;73.22;;;42.95;;
33246;SDS011;19606;50.108;19.804;2022-11-15T13:37:27;77.15;;;45.53;;
33246;SDS011;19606;50.108;19.804;2022-11-15T13:39:54;86.07;;;47.00;;
33246;SDS011;19606;50.108;19.804;2022-11-15T13:42:21;85.63;;;49.08;;
33246;SDS011;19606;50.108;19.804;2022-11-15T13:44:56;80.00;;;45.33;;
33246;SDS011;19606;50.108;19.804;2022-11-15T13:47:24;75.38;;;40.70;;
33246;SDS011;19606;50.108;19.804;2022-11-15T13:49:52;76.88;;;42.13;;
33246;SDS011;19606;50.108;19.804;2022-11-15T13:52:18;76.47;;;43.08;;
33246;SDS011;19606;50.108;19.804;2022-11-15T13:54:53;77.97;;;41.80;;
33246;SDS011;19606;50.108;19.804;2022-11-15T13:57:29;76.75;;;42.85;;
33246;SDS011;19606;50.108;19.804;2022-11-15T14:00:04;83.75;;;46.65;;
33246;SDS011;19606;50.108;19.804;2022-11-15T14:02:32;105.45;;;56.60;;
33246;SDS011;19606;50.108;19.804;2022-11-15T14:05:14;89.30;;;46.17;;
33246;SDS011;19606;50.108;19.804;2022-11-15T14:07:44;78.95;;;41.00;;
33246;SDS011;19606;50.108;19.804;2022-11-15T14:10:28;87.15;;;45.10;;
33246;SDS011;19606;50.108;19.804;2022-11-15T14:12:54;232.13;;;99.50;;
33246;SDS011;19606;50.108;19.804;2022-11-15T14:15:25;334.05;;;133.02;;
33246;SDS011;19606;50.108;19.804;2022-11-15T14:22:53;148.77;;;65.38;;
33246;SDS011;19606;50.108;19.804;2022-11-15T14:25:20;99.18;;;48.45;;
33246;SDS011;19606;50.108;19.804;2022-11-15T14:30:32;81.10;;;44.00;;
33246;SDS011;19606;50.108;19.804;2022-11-15T14:32:58;89.28;;;46.55;;
33246;SDS011;19606;50.108;19.804;2022-11-15T14:35:24;86.38;;;46.13;;
33246;SDS011;19606;50.108;19.804;2022-11-15T14:37:50;92.05;;;46.38;;
33246;SDS011;19606;50.108;19.804;2022-11-15T14:40:18;90.47;;;45.22;;
33246;SDS011;19606;50.108;19.804;2022-11-15T14:42:44;86.63;;;44.35;;
33246;SDS011;19606;50.108;19.804;2022-11-15T14:45:12;84.88;;;45.55;;
33246;SDS011;19606;50.108;19.804;2022-11-15T14:47:38;89.43;;;43.80;;
33246;SDS011;19606;50.108;19.804;2022-11-15T14:50:04;101.90;;;49.25;;
33246;SDS011;19606;50.108;19.804;2022-11-15T14:52:31;123.25;;;57.65;;
33246;SDS011;19606;50.108;19.804;2022-11-15T14:55:01;131.17;;;60.17;;
33246;SDS011;19606;50.108;19.804;2022-11-15T14:57:29;103.15;;;52.90;;
33246;SDS011;19606;50.108;19.804;2022-11-15T14:59:55;96.35;;;50.65;;
33246;SDS011;19606;50.108;19.804;2022-11-15T15:02:25;106.90;;;55.10;;
33246;SDS011;19606;50.108;19.804;2022-11-15T15:04:52;98.40;;;49.00;;
33246;SDS011;19606;50.108;19.804;2022-11-15T15:07:18;92.53;;;47.95;;
33246;SDS011;19606;50.108;19.804;2022-11-15T15:09:45;101.20;;;49.13;;
33246;SDS011;19606;50.108;19.804;2022-11-15T15:14:40;88.63;;;48.13;;
33246;SDS011;19606;50.108;19.804;2022-11-15T15:17:06;95.30;;;49.08;;
33246;SDS011;19606;50.108;19.804;2022-11-15T15:19:32;106.20;;;53.17;;
33246;SDS011;19606;50.108;19.804;2022-11-15T15:21:58;91.53;;;47.13;;
33246;SDS011;19606;50.108;19.804;2022-11-15T15:24:24;103.97;;;53.33;;
33246;SDS011;19606;50.108;19.804;2022-11-15T15:26:50;104.88;;;53.00;;
33246;SDS011;19606;50.108;19.804;2022-11-15T15:29:16;101.82;;;52.40;;
33246;SDS011;19606;50.108;19.804;2022-11-15T15:31:42;109.45;;;54.38;;
33246;SDS011;19606;50.108;19.804;2022-11-15T15:34:08;105.10;;;53.60;;
33246;SDS011;19606;50.108;19.804;2022-11-15T15:36:37;101.28;;;54.63;;
33246;SDS011;19606;50.108;19.804;2022-11-15T15:39:03;105.30;;;54.85;;
33246;SDS011;19606;50.108;19.804;2022-11-15T15:41:29;100.50;;;55.65;;
33246;SDS011;19606;50.108;19.804;2022-11-15T15:43:55;106.70;;;57.72;;
33246;SDS011;19606;50.108;19.804;2022-11-15T15:46:21;109.82;;;58.88;;
33246;SDS011;19606;50.108;19.804;2022-11-15T15:48:47;108.53;;;55.90;;
33246;SDS011;19606;50.108;19.804;2022-11-15T15:51:13;103.32;;;54.03;;
33246;SDS011;19606;50.108;19.804;2022-11-15T15:53:39;112.97;;;61.20;;
33246;SDS011;19606;50.108;19.804;2022-11-15T15:56:05;138.38;;;78.28;;
33246;SDS011;19606;50.108;19.804;2022-11-15T15:58:33;120.63;;;61.97;;
33246;SDS011;19606;50.108;19.804;2022-11-15T16:00:59;116.75;;;60.58;;